Time;durP1;ratioP1;P1;durP2;ratioP2;P2;SDS_P1;SDS_P2;PMS_P1;PMS_P2;Temp;Humidity;BMP_temperature;BMP_pressure;BME280_temperature;BME280_humidity;BME280_pressure;Samples;Min_cycle;Max_cycle;Signal;HPM_P1;HPM_P2
2023/08/02 00:00:17;;;;;;;3.25;3.05;;;19.40;99.90;;;19.65;88.26;99922.09;5032669;28;20136;-70
2023/08/02 00:02:46;;;;;;;2.80;2.70;;;19.30;99.90;;;19.61;88.20;99900.88;5033558;28;20045;-70
2023/08/02 00:05:14;;;;;;;2.70;2.60;;;19.30;99.90;;;19.47;88.39;99876.69;5042255;28;20037;-69
2023/08/02 00:07:42;;;;;;;3.00;2.90;;;19.30;99.90;;;19.62;88.21;99910.69;5042350;28;20049;-71
2023/08/02 00:10:12;;;;;;;3.08;2.97;;;19.30;99.90;;;19.54;88.55;99907.56;5042060;28;20048;-70
2023/08/02 00:12:41;;;;;;;3.03;2.92;;;19.30;99.90;;;19.48;89.06;99908.78;5043429;28;20482;-70
2023/08/02 00:15:10;;;;;;;24.05;3.10;;;19.20;99.90;;;19.43;89.79;99907.31;5040863;28;20046;-70
2023/08/02 00:17:38;;;;;;;3.38;3.28;;;19.10;99.90;;;19.43;90.20;99909.97;5043804;28;20049;-70
2023/08/02 00:20:09;;;;;;;3.35;3.20;;;19.10;99.90;;;19.42;90.93;99913.59;5031851;28;20041;-70
2023/08/02 00:22:37;;;;;;;3.25;3.15;;;19.10;99.90;;;19.34;91.53;99930.13;5032221;28;20053;-72
2023/08/02 00:25:06;;;;;;;2.90;2.80;;;19.00;99.90;;;19.34;91.74;99899.75;5031958;28;20400;-70
2023/08/02 00:27:36;;;;;;;3.40;3.30;;;19.00;99.90;;;19.25;92.33;99905.59;5033450;28;20495;-69
2023/08/02 00:30:06;;;;;;;3.00;2.90;;;18.90;99.90;;;19.35;92.26;99891.63;5051993;28;20454;-70
2023/08/02 00:32:38;;;;;;;2.70;2.60;;;19.00;99.90;;;19.31;92.30;99883.81;5058585;28;20081;-70
2023/08/02 00:35:08;;;;;;;3.05;2.95;;;19.00;99.90;;;19.33;92.81;99882.81;5047818;28;20045;-70
2023/08/02 00:37:36;;;;;;;3.35;3.25;;;19.00;99.90;;;19.30;92.80;99884.78;5044032;28;20439;-70
2023/08/02 00:40:07;;;;;;;2.97;2.88;;;19.00;99.90;;;19.29;93.24;99886.59;5062416;28;20048;-69
2023/08/02 00:42:37;;;;;;;3.40;3.30;;;19.00;99.90;;;19.27;93.35;99875.06;5040586;28;20057;-69
2023/08/02 00:45:08;;;;;;;3.25;3.15;;;19.00;99.90;;;19.32;93.28;99881.06;5077966;28;20137;-69
2023/08/02 00:47:37;;;;;;;2.83;2.65;;;19.00;99.90;;;19.45;93.13;99894.66;5044993;28;20049;-70
2023/08/02 00:50:07;;;;;;;3.88;3.58;;;19.10;99.90;;;19.40;92.78;99886.00;5062225;28;20048;-71
2023/08/02 00:52:36;;;;;;;3.00;2.90;;;19.10;99.90;;;19.41;93.06;99875.22;5060047;28;20127;-70
2023/08/02 00:55:05;;;;;;;3.60;3.40;;;19.10;99.90;;;19.40;92.52;99888.69;5044341;28;20296;-69
2023/08/02 00:57:34;;;;;;;3.17;3.08;;;19.10;99.90;;;19.41;92.90;99867.16;5062696;28;20040;-70
2023/08/02 01:00:06;;;;;;;3.53;3.42;;;19.10;99.90;;;19.32;92.87;99847.97;5040597;28;20057;-70
2023/08/02 01:02:34;;;;;;;3.80;3.60;;;19.10;99.90;;;19.43;92.54;99859.91;5045971;28;20069;-70
2023/08/02 01:05:03;;;;;;;3.17;3.08;;;19.10;99.90;;;19.43;92.07;99856.34;5045607;28;21905;-69
2023/08/02 01:07:40;;;;;;;6.18;4.45;;;19.10;99.90;;;19.42;91.71;99859.97;5059006;28;20130;-71
2023/08/02 01:10:13;;;;;;;3.80;3.60;;;19.10;99.90;;;19.35;91.79;99851.41;5035962;28;20049;-69
2023/08/02 01:12:47;;;;;;;2.83;2.72;;;19.10;99.90;;;19.35;92.09;99845.16;5036083;28;20124;-70
2023/08/02 01:15:17;;;;;;;3.17;3.08;;;19.10;99.90;;;19.28;92.10;99836.56;5035629;28;20518;-69
2023/08/02 01:17:47;;;;;;;3.17;3.08;;;19.10;99.90;;;19.42;91.80;99855.47;5038939;28;20053;-70
2023/08/02 01:20:16;;;;;;;2.80;2.70;;;19.10;99.90;;;19.40;92.08;99859.19;5044165;28;20128;-70
2023/08/02 01:22:45;;;;;;;3.77;3.57;;;19.10;99.90;;;19.33;91.98;99849.75;5035667;28;20049;-69
2023/08/02 01:25:13;;;;;;;3.20;3.00;;;19.00;99.90;;;19.27;92.22;99828.63;5042306;28;20076;-70
2023/08/02 01:27:49;;;;;;;5.03;4.63;;;19.00;99.90;;;19.15;92.85;99840.88;5050927;28;20045;-70
2023/08/02 01:30:20;;;;;;;3.00;2.90;;;18.90;99.90;;;19.10;93.12;99824.22;5053267;28;20045;-69
2023/08/02 01:32:49;;;;;;;3.08;2.97;;;18.80;99.90;;;19.04;93.45;99821.00;5044360;28;20084;-70
2023/08/02 01:35:20;;;;;;;4.15;3.85;;;18.70;99.90;;;19.10;93.30;99829.56;5047010;28;20111;-70
2023/08/02 01:37:49;;;;;;;3.95;3.70;;;18.70;99.90;;;19.01;93.44;99810.47;5035382;28;20092;-70
2023/08/02 01:40:17;;;;;;;3.10;3.00;;;18.70;99.90;;;18.98;93.85;99819.53;5034639;28;20056;-69
2023/08/02 01:42:46;;;;;;;4.03;3.83;;;18.70;99.90;;;19.01;93.53;99805.94;5067398;28;20044;-69
2023/08/02 01:45:14;;;;;;;3.03;2.92;;;18.70;99.90;;;18.97;93.50;99795.50;5036314;28;20076;-70
2023/08/02 01:47:43;;;;;;;3.25;3.15;;;18.70;99.90;;;19.01;93.13;99786.34;5045377;28;20120;-69
2023/08/02 01:50:11;;;;;;;3.83;3.63;;;18.70;99.90;;;19.03;92.90;99789.78;5045409;28;20493;-69
2023/08/02 01:52:41;;;;;;;3.20;2.95;;;18.70;99.90;;;19.14;92.42;99784.69;5059961;28;20040;-70
2023/08/02 01:55:10;;;;;;;3.30;3.20;;;18.80;99.90;;;19.07;92.54;99777.91;5046381;28;20052;-70
2023/08/02 01:57:38;;;;;;;4.28;3.22;;;18.80;99.90;;;18.95;92.90;99775.94;5043574;28;20112;-70
2023/08/02 02:00:09;;;;;;;3.65;3.45;;;18.70;99.90;;;18.84;94.08;99763.13;5062150;28;20072;-70
2023/08/02 02:02:40;;;;;;;3.90;3.70;;;18.60;99.90;;;18.76;94.41;99752.84;5043627;28;20447;-70
2023/08/02 02:05:09;;;;;;;3.00;2.90;;;18.50;99.90;;;18.69;95.38;99753.28;5060984;28;20135;-69
2023/08/02 02:07:37;;;;;;;4.82;4.45;;;18.40;99.90;;;18.63;95.88;99741.09;5044561;28;20091;-70
2023/08/02 02:10:08;;;;;;;3.70;3.50;;;18.40;99.90;;;18.67;95.90;99737.31;5060106;28;20049;-69
2023/08/02 02:12:36;;;;;;;;;;;18.40;99.90;;;18.54;96.45;99724.66;5045527;28;20435;-71
2023/08/02 02:15:06;;;;;;;2.88;2.78;;;18.40;99.90;;;18.49;96.78;99714.19;5042279;28;20378;-70
2023/08/02 02:17:34;;;;;;;3.15;3.05;;;18.30;99.90;;;18.51;97.00;99706.06;5058138;28;20548;-70
2023/08/02 02:20:03;;;;;;;4.15;3.95;;;18.30;99.90;;;18.44;97.16;99676.09;5034709;28;20479;-69
2023/08/02 02:22:32;;;;;;;3.25;3.15;;;18.30;99.90;;;18.62;96.81;99696.50;5034538;28;20088;-70
2023/08/02 02:25:00;;;;;;;3.55;3.45;;;18.40;99.90;;;18.70;96.44;99688.91;5034259;28;20090;-70
2023/08/02 02:27:30;;;;;;;3.10;3.00;;;18.50;99.90;;;18.73;96.04;99683.38;5035673;28;20057;-70
2023/08/02 02:29:58;;;;;;;3.80;3.60;;;18.50;99.90;;;18.54;96.07;99687.19;5059892;28;20502;-69
2023/08/02 02:32:27;;;;;;;3.10;3.00;;;18.40;99.90;;;18.48;97.12;99684.84;5044558;28;20375;-69
2023/08/02 02:34:55;;;;;;;3.20;3.10;;;18.30;99.90;;;18.60;96.66;99684.16;5043770;28;20072;-70
2023/08/02 02:37:24;;;;;;;3.72;3.55;;;18.40;99.90;;;18.31;97.74;99682.19;5057270;28;20053;-69
2023/08/02 02:39:52;;;;;;;6.20;4.28;;;18.20;99.90;;;18.17;99.36;99690.97;5077794;28;20135;-69
2023/08/02 02:42:20;;;;;;;3.50;3.40;;;18.00;99.90;;;18.11;100.00;99677.06;5057846;28;20135;-70
2023/08/02 02:44:50;;;;;;;3.30;3.10;;;17.90;99.90;;;18.14;100.00;99677.75;5042082;28;20045;-69
2023/08/02 02:47:18;;;;;;;4.37;4.17;;;18.00;99.90;;;18.04;100.00;99692.56;5045061;28;20494;-70
2023/08/02 02:49:47;;;;;;;7.68;4.90;;;17.80;99.90;;;18.01;100.00;99692.72;5043237;28;20049;-70
2023/08/02 02:52:16;;;;;;;3.50;3.38;;;17.90;99.90;;;18.10;100.00;99676.19;5043458;28;20049;-70
2023/08/02 02:54:44;;;;;;;3.00;2.90;;;17.90;99.90;;;18.09;100.00;99658.41;5043759;28;20049;-70
2023/08/02 02:57:13;;;;;;;3.80;3.60;;;17.90;99.90;;;17.98;100.00;99650.09;5043339;28;20049;-69
2023/08/02 02:59:41;;;;;;;3.90;3.70;;;17.80;99.90;;;17.91;100.00;99632.63;5044234;28;20040;-70
2023/08/02 03:02:11;;;;;;;2.97;2.88;;;17.70;99.90;;;18.07;100.00;99627.31;5042500;28;20045;-69
2023/08/02 03:04:39;;;;;;;3.47;3.13;;;17.90;99.90;;;17.99;100.00;99604.53;5057074;28;20077;-69
2023/08/02 03:07:08;;;;;;;4.15;3.85;;;17.80;99.90;;;18.02;100.00;99606.19;5045242;28;20386;-70
2023/08/02 03:09:36;;;;;;;3.97;3.78;;;17.80;99.90;;;17.95;100.00;99608.31;5033701;28;20457;-69
2023/08/02 03:12:05;;;;;;;4.30;4.03;;;17.80;99.90;;;17.97;100.00;99600.19;5033222;28;20057;-69
2023/08/02 03:14:34;;;;;;;4.03;3.83;;;17.80;99.90;;;18.06;100.00;99594.31;5033320;28;20136;-70
2023/08/02 03:17:02;;;;;;;3.40;3.30;;;17.80;99.90;;;18.13;100.00;99579.69;5034970;28;20049;-70
2023/08/02 03:19:32;;;;;;;3.22;3.13;;;17.90;99.90;;;17.99;100.00;99583.13;5043358;28;20045;-69
2023/08/02 03:22:00;;;;;;;3.43;3.33;;;17.90;99.90;;;17.91;100.00;99579.13;5043908;28;20053;-69
2023/08/02 03:24:28;;;;;;;9.25;5.00;;;17.70;99.90;;;17.68;100.00;99582.19;5042895;28;20103;-70
2023/08/02 03:26:58;;;;;;;4.85;4.53;;;17.50;99.90;;;17.78;100.00;99578.06;5044119;28;20041;-70
2023/08/02 03:29:26;;;;;;;3.47;3.38;;;17.50;99.90;;;17.70;100.00;99572.28;5041381;28;20128;-69
2023/08/02 03:31:54;;;;;;;17.35;4.85;;;17.50;99.90;;;17.71;100.00;99564.16;5041347;28;20069;-70
2023/08/02 03:34:23;;;;;;;3.92;3.72;;;17.50;99.90;;;17.65;100.00;99564.47;5041433;28;20044;-70
2023/08/02 03:36:52;;;;;;;3.00;2.90;;;17.40;99.90;;;17.62;100.00;99551.28;5044153;28;20084;-69
2023/08/02 03:39:21;;;;;;;4.83;4.20;;;17.40;99.90;;;17.58;100.00;99549.72;5042794;28;20056;-69
2023/08/02 03:41:49;;;;;;;4.22;4.03;;;17.40;99.90;;;17.66;100.00;99551.97;5043176;28;20311;-69
2023/08/02 03:44:17;;;;;;;6.30;3.78;;;17.40;99.90;;;17.33;100.00;99506.50;5042880;28;20095;-70
2023/08/02 03:46:46;;;;;;;4.22;3.83;;;17.40;99.90;;;17.53;100.00;99529.53;5042270;28;20037;-70
2023/08/02 03:49:14;;;;;;;4.60;4.28;;;17.30;99.90;;;17.38;100.00;99499.09;5043733;28;20091;-70
2023/08/02 03:51:43;;;;;;;4.35;4.15;;;17.30;99.90;;;17.48;100.00;99526.22;5041839;28;20461;-70
2023/08/02 03:54:16;;;;;;;6.68;6.10;;;17.20;99.90;;;17.44;100.00;99514.81;5040878;28;20041;-70
2023/08/02 03:56:44;;;;;;;4.65;4.20;;;17.30;99.90;;;17.50;100.00;99511.84;5033043;28;20128;-70
2023/08/02 03:59:13;;;;;;;4.00;3.80;;;17.30;99.90;;;17.48;100.00;99510.19;5032665;28;20057;-70
2023/08/02 04:01:41;;;;;;;4.32;4.05;;;17.30;99.90;;;17.34;100.00;99523.41;5032829;28;20052;-70
2023/08/02 04:04:10;;;;;;;11.15;4.82;;;17.10;99.90;;;17.32;100.00;99498.59;5034011;28;20569;-70
2023/08/02 04:06:38;;;;;;;3.78;3.58;;;17.10;99.90;;;17.40;100.00;99491.84;5042409;28;20048;-69
2023/08/02 04:09:08;;;;;;;4.25;3.85;;;17.10;99.90;;;17.22;100.00;99483.97;5043260;28;20049;-70
2023/08/02 04:11:37;;;;;;;4.80;4.40;;;17.00;99.90;;;17.30;100.00;99481.75;5041572;28;20426;-69
2023/08/02 04:14:06;;;;;;;3.67;3.53;;;17.10;99.90;;;17.17;100.00;99470.00;5044590;28;20087;-69
2023/08/02 04:16:34;;;;;;;6.43;5.05;;;17.00;99.90;;;17.09;100.00;99460.56;5040632;28;20041;-69
2023/08/02 04:19:02;;;;;;;4.05;3.85;;;16.90;99.90;;;17.07;100.00;99456.28;5040949;28;20041;-69
2023/08/02 04:21:30;;;;;;;5.03;4.60;;;16.80;99.90;;;17.11;100.00;99457.84;5043836;28;20443;-69
2023/08/02 04:23:59;;;;;;;5.15;4.85;;;16.80;99.90;;;17.01;100.00;99441.41;5041312;28;20049;-69
2023/08/02 04:26:27;;;;;;;4.30;4.10;;;16.80;99.90;;;17.10;100.00;99442.75;5043005;28;20065;-69
2023/08/02 04:28:57;;;;;;;7.53;4.88;;;16.80;99.90;;;16.96;100.00;99426.59;5041820;28;20222;-68
2023/08/02 04:31:25;;;;;;;5.33;3.67;;;16.70;99.90;;;16.86;100.00;99438.72;5042381;28;20807;-70
2023/08/02 04:33:56;;;;;;;4.47;4.22;;;16.60;99.90;;;16.77;100.00;99426.72;5042976;28;20049;-70
2023/08/02 04:36:25;;;;;;;4.43;4.03;;;16.60;99.90;;;16.87;100.00;99416.41;5047942;28;20049;-70
2023/08/02 04:38:53;;;;;;;7.65;5.32;;;16.60;99.90;;;16.83;100.00;99415.72;5044176;28;20437;-70
2023/08/02 04:41:22;;;;;;;5.25;4.45;;;16.60;99.90;;;16.85;100.00;99403.13;5032358;28;20076;-69
2023/08/02 04:43:50;;;;;;;8.50;4.53;;;16.60;99.90;;;16.72;100.00;99380.72;5032336;28;20481;-70
2023/08/02 04:46:20;;;;;;;8.02;3.60;;;16.50;99.90;;;16.86;100.00;99382.66;5032189;28;20116;-70
2023/08/02 04:48:48;;;;;;;5.45;5.03;;;16.60;99.90;;;16.82;100.00;99391.75;5033749;28;20053;-69
2023/08/02 04:51:17;;;;;;;5.05;4.75;;;16.60;99.90;;;16.84;100.00;99374.69;5042668;28;20053;-69
2023/08/02 04:53:47;;;;;;;4.90;4.60;;;16.60;99.90;;;16.89;100.00;99361.97;5042184;28;20033;-70
2023/08/02 04:56:16;;;;;;;5.28;4.13;;;16.60;99.90;;;16.30;100.00;99260.16;5041571;28;20058;-69
2023/08/02 04:58:44;;;;;;;4.43;4.13;;;16.60;99.90;;;16.86;100.00;99327.41;5043296;28;20056;-70
2023/08/02 05:01:13;;;;;;;5.57;5.07;;;16.60;99.90;;;16.79;100.00;99327.81;5040458;28;20398;-69
2023/08/02 05:03:43;;;;;;;9.32;5.50;;;16.60;99.90;;;16.71;100.00;99296.19;5043938;28;20513;-70
2023/08/02 05:06:12;;;;;;;7.53;6.93;;;16.50;99.90;;;16.68;100.00;99296.38;5059055;28;20045;-70
2023/08/02 05:08:40;;;;;;;9.77;5.75;;;16.40;99.90;;;16.83;100.00;99292.88;5040811;28;20041;-70
2023/08/02 05:11:09;;;;;;;10.88;5.53;;;16.60;99.90;;;16.77;100.00;99290.53;5042556;28;20131;-69
2023/08/02 05:13:38;;;;;;;7.30;5.07;;;16.50;99.90;;;16.73;100.00;99291.63;5041556;28;20407;-70
2023/08/02 05:16:12;;;;;;;8.73;5.43;;;16.50;99.90;;;16.72;100.00;99265.03;5043400;28;20120;-70
2023/08/02 05:18:42;;;;;;;5.28;4.80;;;16.50;99.90;;;16.84;100.00;99285.72;5047109;28;20045;-70
2023/08/02 05:21:12;;;;;;;4.93;4.43;;;16.60;99.90;;;16.78;100.00;99278.88;5036119;28;20136;-69
2023/08/02 05:23:40;;;;;;;10.77;5.40;;;16.50;99.90;;;16.76;100.00;99271.91;5050797;28;20395;-70
2023/08/02 05:26:09;;;;;;;4.53;4.22;;;16.50;99.90;;;16.85;100.00;99269.59;5035359;28;20050;-70
2023/08/02 05:28:38;;;;;;;5.25;4.95;;;16.50;99.90;;;16.84;100.00;99267.88;5036823;28;20041;-70
2023/08/02 05:31:11;;;;;;;7.03;4.63;;;16.60;99.90;;;16.85;100.00;99252.72;5046007;28;20124;-71
2023/08/02 05:33:40;;;;;;;7.22;4.53;;;16.60;99.90;;;16.88;100.00;99257.88;5046181;28;20049;-70
2023/08/02 05:36:11;;;;;;;8.30;4.65;;;16.60;99.90;;;16.77;100.00;99266.50;5044168;28;20049;-71
2023/08/02 05:38:40;;;;;;;3.75;3.58;;;16.60;99.90;;;16.93;100.00;99245.13;5043772;28;20049;-70
2023/08/02 05:41:09;;;;;;;4.68;4.38;;;16.70;99.90;;;16.89;100.00;99244.44;5046573;28;20398;-71
2023/08/02 05:43:41;;;;;;;4.68;4.38;;;16.60;99.90;;;16.79;100.00;99227.22;5043996;28;20046;-71
2023/08/02 05:46:10;;;;;;;11.98;5.63;;;16.60;99.90;;;16.76;100.00;99222.03;5045764;28;20141;-71
2023/08/02 05:48:38;;;;;;;5.40;5.00;;;16.50;99.90;;;16.81;100.00;99228.00;5045536;28;20103;-71
2023/08/02 05:51:06;;;;;;;5.72;5.13;;;16.60;99.90;;;16.84;100.00;99216.28;5044340;28;20060;-70
2023/08/02 05:53:36;;;;;;;5.55;5.05;;;16.60;99.90;;;16.89;100.00;99206.19;5045853;28;20072;-71
2023/08/02 05:56:05;;;;;;;4.78;4.47;;;16.60;99.90;;;16.82;100.00;99205.66;5050468;28;20435;-71
2023/08/02 05:58:33;;;;;;;3.88;3.67;;;16.60;99.90;;;16.93;100.00;99192.59;5043125;28;20049;-71
2023/08/02 06:01:02;;;;;;;4.60;4.20;;;16.60;99.90;;;16.93;100.00;99194.38;5043221;28;20132;-70
2023/08/02 06:03:34;;;;;;;5.40;5.00;;;16.70;99.90;;;16.85;100.00;99189.50;5046026;28;20095;-72
2023/08/02 06:06:02;;;;;;;5.63;5.22;;;16.60;99.90;;;16.84;100.00;99177.06;5044484;28;20068;-71
2023/08/02 06:08:31;;;;;;;4.53;4.32;;;16.60;99.90;;;16.92;100.00;99192.66;5044831;28;20053;-71
2023/08/02 06:11:01;;;;;;;4.55;4.25;;;16.70;99.90;;;16.91;100.00;99164.22;5045370;28;20128;-70
2023/08/02 06:13:30;;;;;;;5.22;4.82;;;16.60;99.90;;;15.98;100.00;99023.66;5043411;28;20061;-71
2023/08/02 06:15:58;;;;;;;4.68;4.25;;;16.50;99.90;;;16.90;100.00;99135.78;5045997;28;20391;-70
2023/08/02 06:18:27;;;;;;;4.80;4.50;;;16.60;99.90;;;16.85;100.00;99136.06;5042611;28;20041;-70
2023/08/02 06:20:55;;;;;;;5.45;5.05;;;16.60;99.90;;;16.82;100.00;99122.03;5042550;28;20045;-69
2023/08/02 06:23:23;;;;;;;4.82;4.53;;;16.60;99.90;;;16.89;100.00;99104.72;5045750;28;20509;-69
2023/08/02 06:25:52;;;;;;;5.15;4.65;;;16.60;99.90;;;16.86;100.00;99104.91;5042928;28;20472;-72
2023/08/02 06:28:23;;;;;;;4.75;4.38;;;16.60;99.90;;;16.74;100.00;99101.09;5044593;28;20207;-70
2023/08/02 06:30:51;;;;;;;4.72;4.43;;;16.50;99.90;;;16.78;100.00;99091.97;5056417;28;20049;-70
2023/08/02 06:33:19;;;;;;;4.00;3.80;;;16.50;99.90;;;16.74;100.00;99094.91;5044194;28;20049;-69
2023/08/02 06:35:48;;;;;;;5.03;4.72;;;16.50;99.90;;;16.83;100.00;99086.38;5043549;28;20041;-70
2023/08/02 06:38:16;;;;;;;5.07;4.68;;;16.50;99.90;;;16.73;100.00;99080.69;5045216;28;20465;-70
2023/08/02 06:40:44;;;;;;;5.20;4.70;;;16.50;99.90;;;16.70;100.00;99077.34;5043172;28;20053;-69
2023/08/02 06:43:12;;;;;;;6.47;4.10;;;16.40;99.90;;;16.68;100.00;99084.59;5045902;28;20116;-70
2023/08/02 06:45:47;;;;;;;4.50;4.30;;;16.40;99.90;;;16.62;100.00;99052.91;5034130;28;20179;-68
2023/08/02 06:48:20;;;;;;;9.68;4.82;;;16.50;99.90;;;16.70;100.00;99067.53;5034129;28;20092;-69
2023/08/02 06:50:49;;;;;;;4.15;3.95;;;16.40;99.90;;;16.73;100.00;99054.00;5033801;28;20037;-69
2023/08/02 06:53:17;;;;;;;3.92;3.72;;;16.50;99.90;;;16.78;100.00;99048.41;5036708;28;20705;-69
2023/08/02 06:55:46;;;;;;;5.80;4.40;;;16.50;99.90;;;16.78;100.00;99035.88;5042887;28;20045;-69
2023/08/02 06:58:14;;;;;;;4.53;4.13;;;16.50;99.90;;;16.85;100.00;99034.59;5045731;28;20143;-69
2023/08/02 07:00:43;;;;;;;4.28;4.07;;;16.60;99.90;;;16.89;100.00;99033.47;5041667;28;20495;-69
2023/08/02 07:03:13;;;;;;;4.03;3.83;;;16.60;99.90;;;16.80;100.00;99019.81;5042529;28;20128;-69
2023/08/02 07:05:42;;;;;;;3.70;3.50;;;16.60;99.90;;;17.02;100.00;99007.72;5044935;28;20437;-67
2023/08/02 07:08:10;;;;;;;4.80;3.90;;;16.70;99.90;;;17.00;100.00;98998.09;5042680;28;20050;-69
2023/08/02 07:10:39;;;;;;;4.03;3.83;;;16.70;99.90;;;16.92;100.00;98990.53;5043679;28;20041;-69
2023/08/02 07:13:07;;;;;;;4.10;3.90;;;16.70;99.90;;;17.04;100.00;98983.59;5043842;28;20054;-69
2023/08/02 07:15:36;;;;;;;4.35;3.95;;;16.70;99.90;;;16.99;100.00;98983.88;5042990;28;20456;-69
2023/08/02 07:18:04;;;;;;;4.05;3.80;;;16.70;99.90;;;17.09;100.00;98973.50;5044560;28;20106;-69
2023/08/02 07:20:34;;;;;;;3.78;3.58;;;16.80;99.90;;;17.13;100.00;98975.88;5041992;28;20042;-68
2023/08/02 07:23:02;;;;;;;4.20;3.90;;;16.80;99.90;;;17.13;100.00;98970.53;5056894;28;20062;-68
2023/08/02 07:25:30;;;;;;;3.78;3.58;;;16.90;99.90;;;17.10;100.00;98970.72;5041754;28;20069;-69
2023/08/02 07:27:59;;;;;;;3.58;3.38;;;16.80;99.90;;;17.22;100.00;98968.25;5044914;28;20148;-69
2023/08/02 07:30:27;;;;;;;4.85;4.53;;;16.90;99.90;;;17.11;100.00;98968.94;5041863;28;20049;-69
2023/08/02 07:32:55;;;;;;;10.15;4.45;;;16.90;99.90;;;17.11;100.00;98955.56;5044022;28;20041;-69
2023/08/02 07:35:24;;;;;;;4.43;4.22;;;16.80;99.90;;;17.12;100.00;98955.47;5042633;28;20052;-68
2023/08/02 07:37:53;;;;;;;3.70;3.50;;;16.90;99.90;;;17.10;100.00;98954.72;5042551;28;20037;-69
2023/08/02 07:40:22;;;;;;;3.83;3.63;;;16.80;99.90;;;17.13;100.00;98965.19;5043370;28;20037;-69
2023/08/02 07:42:50;;;;;;;3.72;3.53;;;16.90;99.90;;;17.23;100.00;98953.97;5041961;28;20529;-69
2023/08/02 07:45:19;;;;;;;3.95;3.75;;;16.90;99.90;;;17.25;100.00;98952.06;5044123;28;20114;-69
2023/08/02 07:47:47;;;;;;;4.32;4.13;;;16.90;99.90;;;17.31;100.00;98949.84;5041262;28;20113;-68
2023/08/02 07:50:15;;;;;;;4.00;3.80;;;17.10;99.90;;;17.39;100.00;98939.53;5033041;28;20471;-69
2023/08/02 07:52:44;;;;;;;3.97;3.78;;;17.10;99.90;;;17.37;100.00;98944.09;5033222;28;20084;-69
2023/08/02 07:55:13;;;;;;;3.38;3.28;;;17.10;99.90;;;17.47;100.00;98947.06;5032631;28;20045;-70
2023/08/02 07:57:42;;;;;;;3.88;3.67;;;17.20;99.90;;;17.50;100.00;98936.22;5041882;28;20069;-69
2023/08/02 08:00:12;;;;;;;3.50;3.40;;;17.20;99.90;;;17.48;100.00;98944.31;5043240;28;20059;-70
2023/08/02 08:02:40;;;;;;;3.72;3.53;;;17.20;99.90;;;17.54;100.00;98937.72;5043523;28;20057;-70
2023/08/02 08:05:09;;;;;;;3.85;3.65;;;17.30;99.90;;;17.66;100.00;98911.06;5042461;28;20072;-70
2023/08/02 08:07:38;;;;;;;3.55;3.45;;;17.50;99.90;;;17.80;100.00;98918.19;5043898;28;20468;-70
2023/08/02 08:10:07;;;;;;;3.88;3.67;;;17.60;99.90;;;17.98;100.00;98917.84;5041266;28;20406;-68
2023/08/02 08:12:38;;;;;;;3.70;3.50;;;17.70;99.90;;;18.12;100.00;98921.47;5044355;28;20049;-70
2023/08/02 08:15:08;;;;;;;3.20;3.10;;;17.90;99.90;;;18.22;100.00;98906.47;5032747;28;20380;-68
2023/08/02 08:17:36;;;;;;;4.03;3.83;;;18.00;99.90;;;18.43;100.00;98887.19;5042174;28;20045;-70
2023/08/02 08:20:06;;;;;;;3.47;3.33;;;18.20;99.90;;;18.54;100.00;98873.91;5032606;28;20462;-69
2023/08/02 08:22:34;;;;;;;3.33;3.22;;;18.30;99.90;;;18.84;100.00;98889.72;5032757;28;20405;-69
2023/08/02 08:25:03;;;;;;;3.25;3.15;;;18.50;99.90;;;18.95;100.00;98891.66;5040644;28;20075;-69
2023/08/02 08:27:33;;;;;;;3.10;3.00;;;18.70;99.90;;;19.06;100.00;98876.53;5043387;28;20076;-69
2023/08/02 08:30:03;;;;;;;3.60;3.50;;;18.80;99.90;;;19.12;100.00;98864.50;5041122;28;20045;-69
2023/08/02 08:32:32;;;;;;;2.85;2.75;;;18.90;99.90;;;19.19;100.00;98877.38;5040334;28;20041;-69
2023/08/02 08:35:01;;;;;;;3.13;3.03;;;19.00;99.90;;;19.29;100.00;98866.84;5043727;28;20048;-69
2023/08/02 08:37:29;;;;;;;3.53;3.42;;;19.10;99.90;;;19.24;100.00;98855.59;5041529;28;20099;-69
2023/08/02 08:39:57;;;;;;;4.07;3.88;;;19.00;99.90;;;19.39;100.00;98870.63;5042853;28;20080;-69
2023/08/02 08:42:50;;;;;;;3.20;3.10;;;19.20;99.90;;;19.43;100.00;98847.97;5044358;28;20134;-69
2023/08/02 08:45:22;;;;;;;3.80;3.53;;;19.20;99.90;;;19.50;100.00;98857.28;5032577;28;20046;-69
2023/08/02 08:47:51;;;;;;;3.40;3.30;;;19.30;99.90;;;19.61;100.00;98852.84;5032136;28;20045;-69
2023/08/02 08:50:22;;;;;;;3.15;3.05;;;19.40;99.90;;;19.65;100.00;98857.00;5033010;28;20049;-69
2023/08/02 08:52:52;;;;;;;3.38;3.28;;;19.50;99.90;;;19.76;100.00;98854.38;5040172;28;20048;-69
2023/08/02 08:55:21;;;;;;;3.60;3.40;;;19.60;99.90;;;19.70;100.00;98824.50;5047741;28;20087;-69
2023/08/02 08:57:50;;;;;;;2.95;2.85;;;19.60;99.90;;;19.90;100.00;98857.91;5044341;28;20125;-70
2023/08/02 09:00:20;;;;;;;2.90;2.80;;;19.70;99.90;;;20.00;100.00;98858.91;5046804;28;20044;-69
2023/08/02 09:02:49;;;;;;;3.20;3.10;;;19.70;99.90;;;20.09;100.00;98845.63;5045569;28;20049;-69
2023/08/02 09:05:18;;;;;;;2.90;2.80;;;19.80;99.90;;;20.18;100.00;98862.88;5061546;28;20080;-69
2023/08/02 09:07:46;;;;;;;2.80;2.70;;;19.90;99.90;;;20.19;100.00;98835.97;5058423;28;20449;-70
2023/08/02 09:10:15;;;;;;;3.50;3.30;;;20.00;99.90;;;20.17;100.00;98840.56;5046405;28;20095;-69
2023/08/02 09:12:45;;;;;;;2.75;2.65;;;20.00;99.90;;;20.24;100.00;98838.31;5044074;28;20132;-70
2023/08/02 09:15:15;;;;;;;3.85;3.65;;;20.00;99.90;;;20.23;100.00;98829.38;5047736;28;20055;-69
2023/08/02 09:17:49;;;;;;;2.78;2.67;;;19.90;99.90;;;20.32;100.00;98828.69;5044542;28;20038;-69
2023/08/02 09:20:19;;;;;;;3.20;3.05;;;20.00;99.90;;;20.45;100.00;98828.59;5045889;28;20049;-69
2023/08/02 09:22:48;;;;;;;4.18;3.83;;;20.10;99.90;;;20.46;100.00;98824.97;5045629;28;20051;-69
2023/08/02 09:25:25;;;;;;;3.00;2.90;;;20.20;99.90;;;20.53;100.00;98835.09;5060354;28;20376;-68
2023/08/02 09:27:56;;;;;;;3.22;3.10;;;20.20;99.90;;;20.66;100.00;98835.84;5043830;28;20040;-68
2023/08/02 09:30:27;;;;;;;;;;;20.30;99.90;;;20.79;100.00;98829.53;5046946;28;20441;-70
2023/08/02 09:33:02;;;;;;;3.65;3.45;;;20.50;99.90;;;20.77;100.00;98840.38;5044933;28;19921;-69
2023/08/02 09:35:50;;;;;;;3.10;2.97;;;20.50;99.90;;;20.79;100.00;98826.84;5059864;28;20049;-70
2023/08/02 09:38:19;;;;;;;4.15;2.88;;;20.50;99.90;;;20.86;100.00;98830.75;5045106;28;20049;-69
2023/08/02 09:40:48;;;;;;;3.33;3.20;;;20.60;99.90;;;20.94;100.00;98848.00;5044633;28;20576;-69
2023/08/02 09:43:20;;;;;;;3.13;3.03;;;20.60;99.90;;;21.03;100.00;98851.78;5046616;28;20041;-69
2023/08/02 09:45:48;;;;;;;4.47;3.75;;;20.70;99.90;;;20.97;100.00;98844.19;5043546;28;20124;-68
2023/08/02 09:48:18;;;;;;;3.28;3.00;;;20.60;99.90;;;21.02;100.00;98855.47;5035229;28;20045;-68
2023/08/02 09:50:54;;;;;;;3.13;3.03;;;20.70;99.90;;;21.28;100.00;98852.41;5034929;28;20103;-69
2023/08/02 09:53:23;;;;;;;2.75;2.65;;;20.90;99.90;;;21.25;100.00;98858.03;5050554;28;20045;-69
2023/08/02 09:55:53;;;;;;;9.18;3.97;;;20.90;99.90;;;21.21;100.00;98851.22;5037378;28;20041;-69
2023/08/02 09:58:22;;;;;;;2.88;2.78;;;20.90;99.90;;;21.22;100.00;98843.97;5043551;28;20543;-70
2023/08/02 10:00:51;;;;;;;2.67;2.58;;;20.90;99.90;;;21.15;100.00;98830.19;5046249;28;20057;-70
2023/08/02 10:03:23;;;;;;;4.85;4.40;;;20.80;99.90;;;21.25;100.00;98841.06;5046824;28;20045;-68
2023/08/02 10:05:54;;;;;;;4.20;3.85;;;20.90;99.90;;;21.47;100.00;98832.94;5043907;28;20442;-70
2023/08/02 10:08:24;;;;;;;2.42;2.33;;;21.10;99.90;;;21.53;100.00;98829.75;5044830;28;20064;-70
2023/08/02 10:10:53;;;;;;;3.08;2.97;;;21.20;99.90;;;21.62;100.00;98836.25;5044760;28;20088;-70
2023/08/02 10:13:26;;;;;;;2.50;2.40;;;21.30;99.90;;;21.76;100.00;98819.78;5043653;28;20487;-70
2023/08/02 10:15:56;;;;;;;3.17;2.97;;;21.40;99.90;;;21.75;100.00;98802.81;5046101;28;20041;-70
2023/08/02 10:18:26;;;;;;;11.95;3.42;;;21.50;99.90;;;21.81;98.98;98826.56;5058358;28;20045;-70
2023/08/02 10:20:56;;;;;;;3.33;3.17;;;21.50;99.90;;;21.86;98.17;98820.78;5061162;28;20375;-69
2023/08/02 10:23:27;;;;;;;3.10;3.00;;;21.50;99.90;;;21.74;96.89;98832.53;5043957;28;20551;-70